Stations météo

réclame
Mon MeteoGroup
Grottaglie, Italie (16324): Température de l'air & dewpoint: 07.12.2017 00:00:00 - 13.12.2017 00:00:00 (CET)Grottaglie, Italie (16324): Vitesse du vent: 07.12.2017 00:00:00 - 13.12.2017 00:00:00 (CET)Grottaglie, Italie (16324): Direction du vent: 07.12.2017 00:00:00 - 13.12.2017 00:00:00 (CET)Grottaglie, Italie (16324): visibility: 07.12.2017 00:00:00 - 13.12.2017 00:00:00 (CET)
Date & Time tt [°C] td [°C] ff [km/h] ff [knt] dd vv [km]
13.12.2017 00:00:00 - - - - - -
12.12.2017 23:00:00 - - - - - -
12.12.2017 22:00:00 - - - - - -
12.12.2017 21:00:00 - - - - - -
12.12.2017 20:00:00 13,0 12,0 8 4 ENE 6
12.12.2017 19:00:00 14,0 13,0 8 4 S 10
12.12.2017 18:00:00 14,0 13,0 4 2 - 10
12.12.2017 17:00:00 15,0 14,0 11 6 S 10
12.12.2017 16:00:00 16,0 13,0 9 5 S 10
12.12.2017 15:00:00 17,0 14,0 15 8 S 10
12.12.2017 14:00:00 18,0 12,0 18 10 S 10
12.12.2017 13:00:00 18,0 10,0 16 9 S 10
12.12.2017 12:00:00 18,0 9,0 16 9 S 10
12.12.2017 11:00:00 18,0 12,0 15 8 S 10
12.12.2017 10:00:00 16,0 13,0 11 6 S 10
12.12.2017 09:00:00 15,0 13,0 11 6 S 10
12.12.2017 08:00:00 14,0 13,0 11 6 S 10
12.12.2017 07:00:00 - - - - - -
12.12.2017 06:00:00 - - - - - -
12.12.2017 05:00:00 - - - - - -
12.12.2017 04:00:00 - - - - - -
12.12.2017 03:00:00 - - - - - -
12.12.2017 02:00:00 - - - - - -
12.12.2017 01:00:00 - - - - - -
12.12.2017 00:00:00 - - - - - -
11.12.2017 23:00:00 - - - - - -
11.12.2017 22:00:00 - - - - - -
11.12.2017 21:00:00 - - - - - -
11.12.2017 20:00:00 15,0 13,0 24 13 S 10
11.12.2017 19:00:00 15,0 13,0 18 10 S 10
11.12.2017 18:00:00 15,0 13,0 24 13 S 10
11.12.2017 17:00:00 15,0 13,0 18 10 S 10
11.12.2017 16:00:00 15,0 12,0 22 12 S 10
11.12.2017 15:00:00 15,0 12,0 22 12 S 10
11.12.2017 14:00:00 16,0 8,0 21 11 S 10
11.12.2017 13:00:00 15,0 8,0 24 13 S 10
11.12.2017 12:00:00 14,0 8,0 18 10 S 10
11.12.2017 11:00:00 14,0 5,0 22 12 S 10
11.12.2017 10:00:00 13,0 8,0 22 12 S 10
11.12.2017 09:00:00 12,0 8,0 13 7 SSW 10
11.12.2017 08:00:00 12,0 7,0 31 17 SSW 10
11.12.2017 07:00:00 - - - - - -
11.12.2017 06:00:00 - - - - - -
11.12.2017 05:00:00 - - - - - -
11.12.2017 04:00:00 - - - - - -
11.12.2017 03:00:00 - - - - - -
11.12.2017 02:00:00 - - - - - -
11.12.2017 01:00:00 - - - - - -
11.12.2017 00:00:00 - - - - - -
10.12.2017 23:00:00 - - - - - -
10.12.2017 22:00:00 - - - - - -
10.12.2017 21:00:00 - - - - - -
10.12.2017 20:00:00 5,0 3,0 5 3 E 10
10.12.2017 19:00:00 5,0 2,0 8 4 SSE 10
10.12.2017 18:00:00 6,0 2,0 9 5 ESE 10
10.12.2017 17:00:00 7,0 1,0 5 3 SE 10
10.12.2017 16:00:00 10,0 0,0 9 5 SSW 10
10.12.2017 15:00:00 10,0 -1,0 11 6 WSW 10
10.12.2017 14:00:00 10,0 -4,0 16 9 WSW 10
10.12.2017 13:00:00 10,0 -1,0 5 3 WSW 10
10.12.2017 12:00:00 10,0 0,0 8 4 SSW 10
10.12.2017 11:00:00 8,0 1,0 0 0 N 10
10.12.2017 10:00:00 6,0 1,0 4 2 - 10
10.12.2017 09:00:00 4,0 1,0 0 0 N 10
10.12.2017 08:00:00 2,0 1,0 0 0 N 10
10.12.2017 07:00:00 - - - - - -
10.12.2017 06:00:00 - - - - - -
10.12.2017 05:00:00 - - - - - -
10.12.2017 04:00:00 - - - - - -
10.12.2017 03:00:00 - - - - - -
10.12.2017 02:00:00 - - - - - -
10.12.2017 01:00:00 - - - - - -
10.12.2017 00:00:00 - - - - - -
09.12.2017 23:00:00 - - - - - -
09.12.2017 22:00:00 - - - - - -
09.12.2017 21:00:00 - - - - - -
09.12.2017 20:00:00 8,0 3,0 15 8 NNW 10
09.12.2017 19:00:00 10,0 4,0 15 8 W 10
09.12.2017 18:00:00 13,0 2,0 29 16 W 10
09.12.2017 17:00:00 13,0 6,0 26 14 WSW 10
09.12.2017 16:00:00 14,0 8,0 18 10 SW 10
09.12.2017 15:00:00 14,0 11,0 22 12 SSW 10
09.12.2017 14:00:00 12,0 10,0 18 10 SSW 10
09.12.2017 13:00:00 13,0 10,0 16 9 WSW 10
09.12.2017 12:00:00 15,0 9,0 29 16 SW 10
09.12.2017 11:00:00 15,0 9,0 31 17 SSW 10
09.12.2017 10:00:00 15,0 8,0 18 10 SSW 10
09.12.2017 09:00:00 15,0 7,0 28 15 SSW 10
09.12.2017 08:00:00 14,0 8,0 21 11 SSW 10
09.12.2017 07:00:00 - - - - - -
09.12.2017 06:00:00 - - - - - -
09.12.2017 05:00:00 - - - - - -
09.12.2017 04:00:00 - - - - - -
09.12.2017 03:00:00 - - - - - -
09.12.2017 02:00:00 - - - - - -
09.12.2017 01:00:00 - - - - - -
09.12.2017 00:00:00 - - - - - -
08.12.2017 23:00:00 - - - - - -
08.12.2017 22:00:00 - - - - - -
08.12.2017 21:00:00 - - - - - -
08.12.2017 20:00:00 12,0 10,0 16 9 S 10
08.12.2017 19:00:00 12,0 9,0 16 9 S 10
08.12.2017 18:00:00 10,0 8,0 9 5 SSE 10
08.12.2017 17:00:00 12,0 9,0 8 4 S 10
08.12.2017 16:00:00 13,0 9,0 11 6 S 10
08.12.2017 15:00:00 14,0 9,0 15 8 S 10
08.12.2017 14:00:00 14,0 9,0 16 9 S 10
08.12.2017 13:00:00 14,0 8,0 16 9 S 10
08.12.2017 12:00:00 14,0 8,0 9 5 SW 10
08.12.2017 11:00:00 13,0 7,0 0 0 N 10
08.12.2017 10:00:00 11,0 7,0 0 0 N 10
08.12.2017 09:00:00 6,0 6,0 0 0 N 10
08.12.2017 08:00:00 2,0 1,0 5 3 NE 10
08.12.2017 07:00:00 - - - - - -
08.12.2017 06:00:00 - - - - - -
08.12.2017 05:00:00 - - - - - -
08.12.2017 04:00:00 - - - - - -
08.12.2017 03:00:00 - - - - - -
08.12.2017 02:00:00 - - - - - -
08.12.2017 01:00:00 - - - - - -
08.12.2017 00:00:00 - - - - - -
07.12.2017 23:00:00 - - - - - -
07.12.2017 22:00:00 - - - - - -
07.12.2017 21:00:00 - - - - - -
07.12.2017 20:00:00 6,0 5,0 0 0 N 10
07.12.2017 19:00:00 9,0 7,0 4 2 - 10
07.12.2017 18:00:00 10,0 8,0 5 3 NE 10
07.12.2017 17:00:00 12,0 7,0 5 3 ENE 10
07.12.2017 16:00:00 14,0 6,0 5 3 WSW 10
07.12.2017 15:00:00 15,0 6,0 5 3 W 10
07.12.2017 14:00:00 15,0 7,0 4 2 - 10
07.12.2017 13:00:00 14,0 7,0 5 3 - 10
07.12.2017 12:00:00 13,0 6,0 9 5 SW 10
07.12.2017 11:00:00 12,0 5,0 5 3 W 10
07.12.2017 10:00:00 10,0 4,0 0 0 N 10
07.12.2017 09:00:00 6,0 4,0 0 0 N 10
07.12.2017 08:00:00 2,0 2,0 0 0 N 10
07.12.2017 07:00:00 - - - - - -
07.12.2017 06:00:00 - - - - - -
07.12.2017 05:00:00 - - - - - -
07.12.2017 04:00:00 - - - - - -
07.12.2017 03:00:00 - - - - - -
07.12.2017 02:00:00 - - - - - -
07.12.2017 01:00:00 - - - - - -
07.12.2017 00:00:00 - - - - - -

tt = Température de l'air
td = dewpoint
ff = Vitesse du vent
dd = Direction du vent
vv = visibility

stations d'obs. à proximité